Time;durP1;ratioP1;P1;durP2;ratioP2;P2;SDS_P1;SDS_P2;PMS_P1;PMS_P2;Temp;Humidity;BMP_temperature;BMP_pressure;BME280_temperature;BME280_humidity;BME280_pressure;Samples;Min_cycle;Max_cycle;Signal;HPM_P1;HPM_P2
2022/07/15 00:02:13;;;;;;;5.93;3.53;;;;;;;13.20;100.00;96608.97;5090797;28;20484;-73
2022/07/15 00:04:41;;;;;;;5.83;3.60;;;;;;;13.03;100.00;96599.34;5073876;28;20543;-73
2022/07/15 00:07:08;;;;;;;5.20;3.27;;;;;;;13.25;100.00;96614.84;5090721;28;20853;-73
2022/07/15 00:12:20;;;;;;;4.93;3.90;;;;;;;13.31;100.00;96608.16;5091876;28;20424;-73
2022/07/15 00:14:46;;;;;;;5.57;3.60;;;;;;;13.02;100.00;96614.50;5090376;28;20440;-73
2022/07/15 00:17:13;;;;;;;6.70;3.23;;;;;;;12.87;100.00;96580.69;5090323;28;20880;-73
2022/07/15 00:19:40;;;;;;;4.43;3.40;;;;;;;12.70;100.00;96589.69;5090502;28;20424;-73
2022/07/15 00:22:07;;;;;;;7.43;4.00;;;;;;;12.77;100.00;96606.91;5090503;28;20523;-73
2022/07/15 00:24:34;;;;;;;4.03;3.50;;;;;;;12.79;100.00;96608.13;5091685;28;20528;-73
2022/07/15 00:27:02;;;;;;;5.23;3.63;;;;;;;12.70;100.00;96591.56;5090315;28;20435;-73
2022/07/15 00:29:30;;;;;;;7.30;3.80;;;;;;;13.03;100.00;96612.63;5073872;28;20446;-73
2022/07/15 00:31:57;;;;;;;7.30;4.33;;;;;;;13.25;100.00;96612.19;5090261;28;20860;-73
2022/07/15 00:34:25;;;;;;;3.83;3.53;;;;;;;12.41;100.00;96582.69;5090251;28;20431;-73
2022/07/15 00:36:51;;;;;;;4.57;3.30;;;;;;;12.93;100.00;96619.16;5073685;28;20486;-73
2022/07/15 00:39:18;;;;;;;4.10;3.70;;;;;;;12.88;100.00;96581.47;5091708;28;20423;-73
2022/07/15 00:41:47;;;;;;;8.20;4.47;;;;;;;12.67;100.00;96600.94;5073764;28;20477;-73
2022/07/15 00:44:13;;;;;;;4.67;4.27;;;;;;;12.76;100.00;96623.94;5090317;28;20870;-73
2022/07/15 00:46:40;;;;;;;6.73;4.10;;;;;;;12.40;100.00;96599.72;5069432;28;20963;-73
2022/07/15 00:49:09;;;;;;;4.70;4.30;;;;;;;12.95;100.00;96616.16;5070453;28;20452;-73
2022/07/15 00:51:43;;;;;;;5.10;4.17;;;;;;;12.77;100.00;96623.59;5069645;28;20424;-73
2022/07/15 00:54:11;;;;;;;6.20;4.77;;;;;;;12.35;100.00;96584.03;5054211;28;20468;-73
2022/07/15 00:56:45;;;;;;;7.80;4.80;;;;;;;12.77;100.00;96613.00;5049893;28;20434;-73
2022/07/15 00:59:12;;;;;;;5.57;4.40;;;;;;;12.82;100.00;96623.41;5066435;28;20461;-73
2022/07/15 01:01:41;;;;;;;4.20;3.83;;;;;;;12.30;100.00;96588.78;5062944;28;20518;-73
2022/07/15 01:04:09;;;;;;;9.00;4.10;;;;;;;12.30;100.00;96618.72;5089731;28;20963;-73
2022/07/15 01:06:36;;;;;;;7.47;4.90;;;;;;;12.25;100.00;96597.72;5090017;28;20488;-73
2022/07/15 01:09:03;;;;;;;4.83;3.50;;;;;;;12.18;100.00;96586.13;5089678;28;20463;-73
2022/07/15 01:11:30;;;;;;;6.50;4.50;;;;;;;12.72;100.00;96634.44;5073129;28;20435;-73
2022/07/15 01:14:01;;;;;;;5.07;4.07;;;;;;;12.75;100.00;96631.13;5089853;28;20440;-73
2022/07/15 01:16:28;;;;;;;4.03;2.93;;;;;;;12.72;100.00;96637.88;5072986;28;20438;-73
2022/07/15 01:18:55;;;;;;;5.63;3.57;;;;;;;12.39;100.00;96642.47;5073018;28;20967;-73
2022/07/15 01:21:27;;;;;;;4.90;3.97;;;;;;;12.59;100.00;96640.84;5091224;28;20455;-73
2022/07/15 01:23:55;;;;;;;5.53;3.73;;;;;;;12.36;100.00;96645.78;5089979;28;20842;-73
2022/07/15 01:26:31;;;;;;;4.47;4.07;;;;;;;12.06;100.00;96623.97;5074575;28;20528;-73
2022/07/15 01:28:58;;;;;;;8.30;4.87;;;;;;;12.25;100.00;96624.22;5089581;28;21032;-73
2022/07/15 01:31:25;;;;;;;4.03;3.63;;;;;;;11.98;100.00;96609.72;5090014;28;20423;-73
2022/07/15 01:33:54;;;;;;;8.90;4.27;;;;;;;12.05;100.00;96615.25;5090109;28;20526;-73
2022/07/15 01:36:21;;;;;;;9.90;4.60;;;;;;;12.11;100.00;96621.13;5073064;28;20538;-73
2022/07/15 01:38:55;;;;;;;4.10;3.30;;;;;;;12.35;100.00;96644.25;5084099;28;20517;-73
2022/07/15 01:41:43;;;;;;;3.57;3.27;;;;;;;12.35;100.00;96649.56;5069523;28;20502;-73
2022/07/15 01:44:14;;;;;;;4.50;3.10;;;;;;;12.33;100.00;96647.22;5053526;28;20456;-73
2022/07/15 01:46:42;;;;;;;7.50;3.67;;;;;;;12.49;100.00;96651.88;5069467;28;20506;-73
2022/07/15 01:49:22;;;;;;;5.03;3.47;;;;;;;12.48;100.00;96651.13;5069333;28;20984;-73
2022/07/15 01:52:08;;;;;;;3.60;3.30;;;;;;;12.44;100.00;96650.25;5051827;28;20429;-73
2022/07/15 01:54:36;;;;;;;5.90;4.17;;;;;;;12.26;100.00;96628.44;5068529;28;20445;-73
2022/07/15 01:57:03;;;;;;;7.10;4.27;;;;;;;11.74;100.00;96617.53;5086022;28;20478;-73
2022/07/15 01:59:34;;;;;;;4.20;3.30;;;;;;;11.88;100.00;96627.88;5069352;28;20956;-73
2022/07/15 02:02:01;;;;;;;4.97;3.40;;;;;;;11.88;100.00;96633.97;5071608;28;20433;-73
2022/07/15 02:04:28;;;;;;;3.40;3.10;;;;;;;11.69;100.00;96642.38;5089804;28;20584;-73
2022/07/15 02:06:55;;;;;;;6.40;3.87;;;;;;;11.85;100.00;96653.16;5073070;28;20436;-73
2022/07/15 02:09:24;;;;;;;4.00;3.60;;;;;;;11.78;100.00;96615.81;5072981;28;20741;-73
2022/07/15 02:11:52;;;;;;;4.07;3.60;;;;;;;11.95;100.00;96626.28;5063321;28;20964;-73
2022/07/15 02:14:23;;;;;;;7.63;3.80;;;;;;;11.93;100.00;96640.94;5077652;28;20486;-73
2022/07/15 02:16:51;;;;;;;4.17;3.77;;;;;;;11.49;100.00;96628.06;5092959;28;20985;-73
2022/07/15 02:19:26;;;;;;;5.97;3.40;;;;;;;11.37;100.00;96620.06;5078268;28;20439;-73
2022/07/15 02:21:55;;;;;;;3.40;2.90;;;;;;;11.47;100.00;96640.06;5086782;28;20858;-73
2022/07/15 02:24:22;;;;;;;6.10;3.40;;;;;;;11.49;100.00;96636.00;5056537;28;20507;-73
2022/07/15 02:26:49;;;;;;;4.10;3.77;;;;;;;11.42;100.00;96633.09;5072523;28;20451;-73
2022/07/15 02:29:16;;;;;;;5.77;3.50;;;;;;;11.59;100.00;96649.94;5052601;28;20460;-73
2022/07/15 02:31:43;;;;;;;4.43;3.57;;;;;;;11.83;100.00;96658.78;5066087;28;20449;-73
2022/07/15 02:34:11;;;;;;;4.63;3.50;;;;;;;11.93;100.00;96656.84;5072674;28;20940;-73
2022/07/15 02:36:39;;;;;;;3.63;3.40;;;;;;;11.67;100.00;96635.84;5072256;28;20432;-73
2022/07/15 02:39:06;;;;;;;6.30;3.40;;;;;;;11.69;100.00;96638.94;5055649;28;20510;-73
2022/07/15 02:41:33;;;;;;;3.30;3.00;;;;;;;11.61;100.00;96653.03;5072132;28;20450;-73
2022/07/15 02:44:05;;;;;;;4.23;3.83;;;;;;;11.35;100.00;96638.16;5056241;28;20440;-73
2022/07/15 02:46:34;;;;;;;3.33;3.00;;;;;;;11.70;100.00;96669.63;5055855;28;20443;-73
2022/07/15 02:49:02;;;;;;;5.77;3.40;;;;;;;11.57;100.00;96660.84;5071973;28;20719;-73
2022/07/15 02:51:30;;;;;;;10.07;3.30;;;;;;;11.65;100.00;96683.09;5088742;28;20448;-73
2022/07/15 02:53:56;;;;;;;3.50;3.20;;;;;;;11.46;100.00;96657.03;5079475;28;20485;-73
2022/07/15 02:56:23;;;;;;;4.00;3.60;;;;;;;11.61;100.00;96688.22;5075339;28;20439;-73
2022/07/15 02:58:50;;;;;;;3.67;3.37;;;;;;;11.70;100.00;96686.31;5091955;28;20448;-73
2022/07/15 03:01:16;;;;;;;3.17;2.87;;;;;;;11.70;100.00;96678.34;5091900;28;20440;-73
2022/07/15 03:03:46;;;;;;;4.20;3.00;;;;;;;11.60;100.00;96696.50;5075693;28;20471;-73
2022/07/15 03:06:19;;;;;;;5.83;3.80;;;;;;;11.60;100.00;96693.84;5075878;28;20490;-73
2022/07/15 03:08:46;;;;;;;3.40;2.90;;;;;;;11.13;100.00;96655.09;5091789;28;20463;-73
2022/07/15 03:11:14;;;;;;;3.60;3.30;;;;;;;11.30;100.00;96659.50;5075256;28;20452;-73
2022/07/15 03:13:43;;;;;;;3.50;3.20;;;;;;;10.99;100.00;96696.91;5090782;28;20446;-73
2022/07/15 03:16:10;;;;;;;14.43;3.30;;;;;;;10.87;100.00;96679.06;5074830;28;20866;-73
2022/07/15 03:18:40;;;;;;;3.13;2.87;;;;;;;10.38;100.00;96667.25;5075139;28;20542;-73
2022/07/15 03:21:08;;;;;;;2.73;2.53;;;;;;;10.84;100.00;96695.56;5075082;28;20865;-73
2022/07/15 03:23:36;;;;;;;3.17;2.97;;;;;;;11.03;100.00;96708.38;5074961;28;20501;-73
2022/07/15 03:26:03;;;;;;;5.27;4.00;;;;;;;11.04;100.00;96709.94;5091512;28;20987;-73
2022/07/15 03:28:30;;;;;;;3.13;2.93;;;;;;;10.89;100.00;96686.66;5074864;28;20455;-73
2022/07/15 03:30:57;;;;;;;3.10;2.80;;;;;;;10.83;100.00;96672.09;5074757;28;20485;-73
2022/07/15 03:33:24;;;;;;;7.53;3.10;;;;;;;10.58;100.00;96706.25;5074573;28;20493;-73
2022/07/15 03:35:51;;;;;;;4.20;3.80;;;;;;;10.89;100.00;96715.78;5092679;28;20419;-73
2022/07/15 03:38:21;;;;;;;4.47;3.40;;;;;;;10.89;100.00;96691.97;5074593;28;20464;-73
2022/07/15 03:40:49;;;;;;;3.30;3.00;;;;;;;10.75;100.00;96715.22;5091066;28;20440;-73
2022/07/15 03:43:16;;;;;;;3.70;3.50;;;;;;;10.83;100.00;96698.53;5091059;28;20431;-73
2022/07/15 03:45:46;;;;;;;3.43;3.23;;;;;;;10.90;100.00;96702.22;5091081;28;20513;-73
2022/07/15 03:48:16;;;;;;;4.70;3.73;;;;;;;10.90;100.00;96691.63;5073761;28;20467;-73
2022/07/15 03:50:42;;;;;;;4.10;3.80;;;;;;;11.18;100.00;96736.16;5072055;28;20435;-73
2022/07/15 03:53:09;;;;;;;3.20;3.00;;;;;;;10.88;100.00;96698.34;5066893;28;20791;-73
2022/07/15 03:55:37;;;;;;;3.90;3.60;;;;;;;10.90;100.00;96736.59;5087577;28;20470;-73
2022/07/15 03:58:04;;;;;;;3.00;2.80;;;;;;;10.60;100.00;96712.00;5070715;28;20536;-73
2022/07/15 04:00:33;;;;;;;5.87;3.97;;;;;;;10.62;100.00;96727.53;5070611;28;20452;-73
2022/07/15 04:03:00;;;;;;;5.30;2.90;;;;;;;10.41;100.00;96695.69;5070422;28;20437;-73
2022/07/15 04:05:26;;;;;;;3.20;2.90;;;;;;;10.90;100.00;96736.59;5071705;28;20495;-73
2022/07/15 04:07:53;;;;;;;3.13;2.83;;;;;;;10.76;100.00;96729.97;5070346;28;20465;-73
2022/07/15 04:10:20;;;;;;;3.30;3.10;;;;;;;10.60;100.00;96696.13;5070429;28;21000;-73
2022/07/15 04:12:47;;;;;;;5.13;3.10;;;;;;;10.82;100.00;96729.50;5053852;28;20433;-73
2022/07/15 04:15:14;;;;;;;3.87;3.57;;;;;;;11.13;100.00;96736.38;5053686;28;20440;-74
2022/07/15 04:17:43;;;;;;;4.03;3.70;;;;;;;10.75;100.00;96717.84;5053964;28;20496;-73
2022/07/15 04:20:12;;;;;;;6.53;4.17;;;;;;;10.47;100.00;96726.19;5087045;28;20433;-74
2022/07/15 04:22:46;;;;;;;5.03;4.00;;;;;;;10.58;100.00;96745.91;5054599;28;20453;-73
2022/07/15 04:25:16;;;;;;;6.57;4.70;;;;;;;10.45;100.00;96746.88;5086682;28;20521;-74
2022/07/15 04:27:43;;;;;;;5.30;4.80;;;;;;;10.62;100.00;96746.03;5061737;28;20476;-74
2022/07/15 04:30:12;;;;;;;7.23;5.50;;;;;;;10.85;100.00;96755.31;5090260;28;20485;-74
2022/07/15 04:32:45;;;;;;;5.53;4.97;;;;;;;11.06;100.00;96728.91;5074590;28;21005;-74
2022/07/15 04:35:12;;;;;;;4.00;3.70;;;;;;;11.28;100.00;96764.94;5087584;28;20449;-74
2022/07/15 04:37:39;;;;;;;5.43;3.60;;;;;;;11.21;100.00;96757.47;5053564;28;20839;-74
2022/07/15 04:40:07;;;;;;;4.70;4.40;;;;;;;11.36;100.00;96740.28;5070356;28;20884;-74
2022/07/15 04:42:36;;;;;;;7.00;4.03;;;;;;;11.20;100.00;96741.91;5070011;28;20444;-74
2022/07/15 04:45:07;;;;;;;3.83;3.53;;;;;;;10.76;100.00;96722.81;5053748;28;21001;-74
2022/07/15 04:47:34;;;;;;;4.60;4.00;;;;;;;11.13;100.00;96774.19;5069859;28;20469;-74
2022/07/15 04:52:50;;;;;;;5.10;4.60;;;;;;;11.19;100.00;96754.38;5065332;28;20809;-75
2022/07/15 04:55:17;;;;;;;5.10;4.17;;;;;;;11.66;100.00;96775.47;5053132;28;20519;-74
2022/07/15 04:57:46;;;;;;;6.30;5.00;;;;;;;12.06;100.00;96769.75;5051596;28;20508;-74
2022/07/15 05:00:13;;;;;;;7.07;6.47;;;;;;;12.05;100.00;96770.84;5061484;28;20937;-74
2022/07/15 05:02:40;;;;;;;5.20;4.80;;;;;;;11.80;100.00;96748.75;5064206;28;20444;-75
2022/07/15 05:05:07;;;;;;;6.60;4.70;;;;;;;12.03;100.00;96754.50;5089827;28;20550;-74
2022/07/15 05:07:34;;;;;;;6.97;5.23;;;;;;;12.22;100.00;96772.59;5070969;28;20471;-75
2022/07/15 05:10:02;;;;;;;4.93;4.20;;;;;;;12.27;100.00;96738.69;5060543;28;20444;-74
2022/07/15 05:12:29;;;;;;;5.37;4.20;;;;;;;12.66;100.00;96749.84;5083017;28;20439;-75
2022/07/15 05:14:58;;;;;;;4.33;4.03;;;;;;;12.65;100.00;96753.59;5089644;28;20492;-74
2022/07/15 05:17:26;;;;;;;4.80;4.30;;;;;;;12.87;100.00;96752.44;5072710;28;21026;-74
2022/07/15 05:19:52;;;;;;;11.63;6.00;;;;;;;12.53;100.00;96748.25;5086556;28;20849;-74
2022/07/15 05:22:23;;;;;;;6.77;6.13;;;;;;;13.03;100.00;96774.56;5051896;28;20434;-74
2022/07/15 05:24:49;;;;;;;10.70;7.63;;;;;;;13.14;100.00;96751.00;5071383;28;20522;-75
2022/07/15 05:27:17;;;;;;;7.03;6.20;;;;;;;13.16;100.00;96780.66;5089390;28;20459;-74
2022/07/15 05:29:47;;;;;;;9.67;6.93;;;;;;;13.02;100.00;96736.63;5089723;28;20554;-74
2022/07/15 05:32:15;;;;;;;8.13;7.33;;;;;;;13.04;100.00;96741.59;5084083;28;20454;-74
2022/07/15 05:34:44;;;;;;;7.53;6.80;;;;;;;13.16;100.00;96754.88;5057105;28;20456;-74
2022/07/15 05:37:13;;;;;;;12.53;5.30;;;;;;;13.40;100.00;96767.41;5077483;28;20432;-75
2022/07/15 05:39:53;;;;;;;5.97;5.30;;;;;;;13.47;100.00;96751.66;5060490;28;21003;-74
2022/07/15 05:42:28;;;;;;;7.13;6.03;;;;;;;13.45;100.00;96761.88;5062282;28;20444;-74
2022/07/15 05:44:55;;;;;;;6.27;5.43;;;;;;;13.71;100.00;96774.00;5072813;28;20518;-74
2022/07/15 05:47:23;;;;;;;11.47;6.70;;;;;;;14.03;100.00;96796.22;5066615;28;20505;-75
2022/07/15 05:49:50;;;;;;;13.03;5.50;;;;;;;14.14;100.00;96803.38;5076692;28;20878;-74
2022/07/15 05:52:16;;;;;;;8.33;5.40;;;;;;;14.47;100.00;96781.13;5094945;28;20498;-74
2022/07/15 05:54:44;;;;;;;6.03;4.37;;;;;;;14.30;100.00;96800.78;5072768;28;20450;-74
2022/07/15 05:57:11;;;;;;;3.97;3.50;;;;;;;14.45;100.00;96802.75;5066621;28;20437;-74
2022/07/15 05:59:38;;;;;;;5.80;4.67;;;;;;;13.87;100.00;96770.31;5093158;28;20465;-75
2022/07/15 06:02:04;;;;;;;5.50;3.80;;;;;;;14.77;100.00;96808.91;5093022;28;21071;-74
2022/07/15 06:04:35;;;;;;;9.20;4.80;;;;;;;14.94;100.00;96789.16;5076798;28;20443;-75
2022/07/15 06:07:02;;;;;;;6.97;4.27;;;;;;;15.30;100.00;96814.03;5092754;28;20455;-74
2022/07/15 06:09:29;;;;;;;4.23;3.83;;;;;;;15.08;100.00;96797.50;5092922;28;20454;-74
2022/07/15 06:11:56;;;;;;;4.33;3.30;;;;;;;15.46;100.00;96785.47;5093056;28;20466;-74
2022/07/15 06:14:22;;;;;;;5.77;3.50;;;;;;;15.79;100.00;96822.44;5068073;28;20433;-75
2022/07/15 06:16:50;;;;;;;10.33;4.67;;;;;;;15.58;100.00;96804.03;5055905;28;20436;-74
2022/07/15 06:19:17;;;;;;;3.90;3.60;;;;;;;16.01;100.00;96812.22;5072429;28;20453;-74
2022/07/15 06:21:44;;;;;;;5.33;3.97;;;;;;;16.05;100.00;96816.53;5072707;28;20850;-74
2022/07/15 06:24:10;;;;;;;4.57;2.97;;;;;;;16.10;100.00;96821.56;5089623;28;20432;-74
2022/07/15 06:26:39;;;;;;;3.10;2.83;;;;;;;16.03;100.00;96805.44;5076657;28;21054;-74
2022/07/15 06:29:06;;;;;;;2.77;2.57;;;;;;;15.74;100.00;96785.34;5068145;28;20469;-74
2022/07/15 06:31:33;;;;;;;3.30;2.97;;;;;;;16.60;100.00;96833.25;5077741;28;20443;-74
2022/07/15 06:34:01;;;;;;;4.90;3.00;;;;;;;15.69;100.00;96825.63;5075811;28;20436;-74
2022/07/15 06:36:28;;;;;;;3.37;3.07;;;;;;;15.77;100.00;96831.91;5092449;28;20983;-74
2022/07/15 06:38:54;;;;;;;5.53;3.50;;;;;;;15.48;100.00;96809.88;5092417;28;21030;-74
2022/07/15 06:41:23;;;;;;;4.40;2.87;;;;;;;15.18;100.00;96828.19;5062355;28;20436;-74
2022/07/15 06:43:57;;;;;;;3.60;2.60;;;;;;;14.77;100.00;96824.88;5053222;28;20437;-74
2022/07/15 06:46:43;;;;;;;2.77;2.40;;;;;;;15.07;100.00;96816.50;5072008;28;20472;-74
2022/07/15 06:49:09;;;;;;;4.10;2.73;;;;;;;15.49;100.00;96832.78;5071966;28;20457;-74
2022/07/15 06:51:36;;;;;;;6.30;2.87;;;;;;;15.27;100.00;96817.38;5088792;28;20796;-73
2022/07/15 06:54:04;;;;;;;7.03;2.20;;;;;;;15.23;100.00;96838.63;5052299;28;20456;-74
2022/07/15 06:56:33;;;;;;;4.90;2.27;;;;;;;15.60;100.00;96841.03;5074381;28;21006;-73
2022/07/15 06:59:00;;;;;;;2.53;2.33;;;;;;;15.11;100.00;96776.66;5092020;28;20463;-73
2022/07/15 07:01:27;;;;;;;2.53;2.20;;;;;;;14.96;100.00;96824.25;5091919;28;20440;-73
2022/07/15 07:03:55;;;;;;;3.07;2.23;;;;;;;14.96;100.00;96816.25;5092124;28;20670;-73
2022/07/15 07:06:26;;;;;;;6.40;3.03;;;;;;;14.99;100.00;96838.75;5075550;28;20459;-73
2022/07/15 07:08:53;;;;;;;3.03;2.33;;;;;;;15.72;100.00;96845.47;5091773;28;20986;-74
2022/07/15 07:11:20;;;;;;;4.23;2.67;;;;;;;15.93;100.00;96827.31;5074962;28;20475;-74
2022/07/15 07:13:48;;;;;;;2.53;2.33;;;;;;;15.93;100.00;96814.75;5093037;28;20431;-74
2022/07/15 07:16:15;;;;;;;4.87;2.70;;;;;;;16.35;100.00;96840.75;5074996;28;20479;-74
2022/07/15 07:18:45;;;;;;;4.53;3.37;;;;;;;15.99;100.00;96846.47;5092868;28;20487;-74
2022/07/15 07:21:12;;;;;;;4.80;2.77;;;;;;;16.11;100.00;96815.09;5091663;28;20439;-74
2022/07/15 07:23:39;;;;;;;3.50;2.70;;;;;;;16.12;100.00;96842.56;5091540;28;20492;-74
2022/07/15 07:26:08;;;;;;;3.40;2.57;;;;;;;16.73;100.00;96847.25;5091360;28;20986;-74
2022/07/15 07:28:34;;;;;;;3.43;2.50;;;;;;;16.94;100.00;96844.19;5092717;28;20471;-74
2022/07/15 07:31:01;;;;;;;3.60;3.13;;;;;;;17.22;100.00;96843.91;5091567;28;20424;-74
2022/07/15 07:33:28;;;;;;;3.63;2.10;;;;;;;17.41;100.00;96849.22;5074566;28;20931;-74
2022/07/15 07:35:55;;;;;;;2.47;2.27;;;;;;;17.42;100.00;96832.03;5091422;28;20427;-74
2022/07/15 07:38:22;;;;;;;3.27;2.43;;;;;;;17.53;100.00;96857.06;5092779;28;20534;-74
2022/07/15 07:40:48;;;;;;;4.00;2.60;;;;;;;17.65;98.61;96829.34;5080023;28;20440;-74
2022/07/15 07:43:17;;;;;;;2.10;2.00;;;;;;;17.57;92.92;96857.09;5098247;28;20453;-74
2022/07/15 07:45:45;;;;;;;2.80;2.37;;;;;;;17.59;89.87;96850.25;5098573;28;20456;-74
2022/07/15 07:48:12;;;;;;;4.40;2.23;;;;;;;17.49;87.82;96834.03;5063299;28;20460;-74
2022/07/15 07:50:39;;;;;;;3.10;1.90;;;;;;;17.35;89.54;96831.91;5075932;28;20445;-74
2022/07/15 07:53:06;;;;;;;2.10;1.83;;;;;;;17.73;88.98;96844.38;5072936;28;20478;-74
2022/07/15 07:55:33;;;;;;;3.83;1.70;;;;;;;17.97;90.16;96824.47;5076637;28;20439;-74
2022/07/15 07:58:00;;;;;;;2.87;2.07;;;;;;;18.09;87.31;96836.88;5059589;28;20496;-74
2022/07/15 08:00:28;;;;;;;2.40;2.20;;;;;;;17.66;91.99;96828.22;5075771;28;20455;-74
2022/07/15 08:02:57;;;;;;;2.27;1.83;;;;;;;18.30;86.28;96831.81;5076821;28;20456;-74
2022/07/15 08:05:24;;;;;;;3.20;1.90;;;;;;;18.64;85.44;96827.25;5087127;28;20463;-74
2022/07/15 08:08:07;;;;;;;3.10;1.67;;;;;;;19.12;83.80;96832.72;5097138;28;20804;-74
2022/07/15 08:10:34;;;;;;;4.50;2.00;;;;;;;18.08;82.85;96813.91;5095584;28;20476;-74
2022/07/15 08:13:01;;;;;;;4.90;2.20;;;;;;;18.89;78.94;96830.19;5078810;28;20462;-74
2022/07/15 08:15:28;;;;;;;1.90;1.80;;;;;;;18.61;81.75;96809.97;5078230;28;20493;-74
2022/07/15 08:17:55;;;;;;;3.70;1.50;;;;;;;17.85;80.91;96828.13;5098437;28;21026;-74
2022/07/15 08:20:22;;;;;;;2.40;1.93;;;;;;;17.94;82.20;96831.31;5095985;28;20428;-74
2022/07/15 08:22:49;;;;;;;4.03;1.90;;;;;;;17.64;81.87;96820.56;5091888;28;20493;-74
2022/07/15 08:25:15;;;;;;;2.17;1.83;;;;;;;18.35;78.93;96811.97;5076775;28;20436;-74
2022/07/15 08:27:42;;;;;;;1.50;1.40;;;;;;;18.83;79.02;96826.28;5071526;28;20476;-74
2022/07/15 08:30:09;;;;;;;1.60;1.50;;;;;;;18.95;75.36;96826.03;5070194;28;20444;-74
2022/07/15 08:32:36;;;;;;;2.60;1.50;;;;;;;19.13;73.30;96837.69;5070137;28;20433;-74
2022/07/15 08:35:03;;;;;;;2.47;1.53;;;;;;;19.05;73.43;96825.38;5069978;28;20432;-74
2022/07/15 08:37:37;;;;;;;5.23;2.10;;;;;;;19.41;72.56;96837.19;5086852;28;20510;-74
2022/07/15 08:40:06;;;;;;;2.10;1.60;;;;;;;19.65;70.22;96832.41;5086991;28;21283;-74
2022/07/15 08:42:32;;;;;;;4.73;1.70;;;;;;;19.45;71.37;96823.78;5070111;28;20455;-74
2022/07/15 08:44:59;;;;;;;3.10;1.87;;;;;;;19.26;73.67;96838.19;5069997;28;20440;-74
2022/07/15 08:47:27;;;;;;;1.80;1.53;;;;;;;19.67;72.31;96827.44;5070013;28;21065;-74
2022/07/15 08:50:17;;;;;;;3.33;1.80;;;;;;;20.29;69.70;96835.44;5069724;28;20977;-74
2022/07/15 08:52:46;;;;;;;1.70;1.60;;;;;;;20.50;69.54;96826.75;5066446;28;20844;-74
2022/07/15 08:55:18;;;;;;;3.00;1.70;;;;;;;20.55;67.16;96840.59;5069931;28;20444;-74
2022/07/15 08:57:48;;;;;;;3.07;2.70;;;;;;;20.86;66.92;96836.47;5071034;28;20494;-74
2022/07/15 09:00:16;;;;;;;2.87;1.90;;;;;;;19.72;69.67;96825.16;5069854;28;20432;-74
2022/07/15 09:02:43;;;;;;;2.50;1.80;;;;;;;19.33;69.89;96830.19;5071039;28;20428;-74
2022/07/15 09:05:26;;;;;;;2.27;1.83;;;;;;;18.50;71.82;96808.31;5069798;28;20519;-74
2022/07/15 09:07:54;;;;;;;3.70;2.10;;;;;;;19.86;71.08;96826.41;5069593;28;21003;-75
2022/07/15 09:10:39;;;;;;;5.10;2.60;;;;;;;20.08;68.69;96817.34;5071037;28;20511;-74
2022/07/15 09:13:06;;;;;;;1.70;1.60;;;;;;;20.44;68.71;96818.31;5073808;28;20475;-74
2022/07/15 09:15:37;;;;;;;3.50;1.70;;;;;;;19.04;70.52;96828.41;5073546;28;20802;-75
2022/07/15 09:18:16;;;;;;;3.53;2.13;;;;;;;18.56;71.54;96802.28;5090619;28;20448;-75
2022/07/15 09:20:45;;;;;;;3.17;2.00;;;;;;;18.77;71.10;96823.19;5073652;28;20432;-74
2022/07/15 09:23:18;;;;;;;4.40;1.67;;;;;;;18.42;70.39;96814.69;5073680;28;20466;-74
2022/07/15 09:25:44;;;;;;;2.67;1.90;;;;;;;18.22;71.28;96814.88;5090512;28;20478;-74
2022/07/15 09:28:11;;;;;;;5.47;2.13;;;;;;;18.57;73.29;96822.56;5056917;28;20539;-74
2022/07/15 09:33:34;;;;;;;1.87;1.77;;;;;;;19.22;68.41;96832.03;5073390;28;20679;-74
2022/07/15 09:36:04;;;;;;;2.40;2.03;;;;;;;19.75;68.33;96831.69;5073344;28;20443;-74
2022/07/15 09:38:31;;;;;;;3.30;1.70;;;;;;;20.78;66.31;96831.44;5073416;28;20452;-74
2022/07/15 09:40:59;;;;;;;2.00;1.50;;;;;;;20.90;66.84;96817.66;5073347;28;20433;-74
2022/07/15 09:43:27;;;;;;;1.77;1.67;;;;;;;21.36;66.48;96839.25;5090024;28;20444;-74
2022/07/15 09:46:01;;;;;;;3.83;2.60;;;;;;;20.42;65.40;96823.25;5074481;28;20458;-74
2022/07/15 09:48:29;;;;;;;2.77;1.93;;;;;;;19.62;65.74;96815.13;5073090;28;20539;-74
2022/07/15 09:51:00;;;;;;;2.27;1.87;;;;;;;18.93;66.78;96785.44;5073281;28;20438;-74
2022/07/15 09:53:28;;;;;;;2.33;2.00;;;;;;;18.31;69.48;96812.69;5058671;28;20444;-74
2022/07/15 09:55:55;;;;;;;4.13;2.13;;;;;;;17.98;69.61;96815.31;5093503;28;20438;-74
2022/07/15 09:58:22;;;;;;;2.50;1.73;;;;;;;18.14;69.37;96817.81;5093459;28;21005;-74
2022/07/15 10:00:52;;;;;;;2.27;2.07;;;;;;;18.11;71.26;96813.94;5076349;28;20435;-74
2022/07/15 10:03:22;;;;;;;4.10;2.30;;;;;;;17.91;70.36;96816.00;5076234;28;20435;-74
2022/07/15 10:05:56;;;;;;;3.80;2.30;;;;;;;18.41;69.82;96811.25;5094407;28;20455;-75
2022/07/15 10:08:24;;;;;;;2.90;2.67;;;;;;;19.27;68.97;96812.94;5076679;28;20451;-74
2022/07/15 10:10:53;;;;;;;2.70;2.50;;;;;;;19.03;67.46;96755.28;5094325;28;20480;-75
2022/07/15 10:13:48;;;;;;;2.80;2.17;;;;;;;20.31;65.53;96817.84;5076685;28;20977;-74
2022/07/15 10:16:47;;;;;;;2.37;2.17;;;;;;;19.85;67.17;96809.53;5094212;28;20439;-74
2022/07/15 10:19:24;;;;;;;2.67;2.33;;;;;;;18.86;67.03;96814.84;5085509;28;20459;-74
2022/07/15 10:22:05;;;;;;;2.60;2.40;;;;;;;19.09;69.47;96818.13;5075512;28;20438;-74
2022/07/15 10:24:50;;;;;;;4.03;2.30;;;;;;;18.60;71.16;96815.69;5076123;28;20439;-74
2022/07/15 10:27:46;;;;;;;2.80;1.80;;;;;;;18.36;70.86;96819.63;5092407;28;20475;-74
2022/07/15 10:30:19;;;;;;;3.50;1.63;;;;;;;17.93;69.68;96784.28;5075831;28;20475;-74
2022/07/15 10:33:05;;;;;;;2.10;1.77;;;;;;;18.48;68.97;96818.63;5092564;28;20435;-74
2022/07/15 10:35:43;;;;;;;2.20;2.00;;;;;;;19.05;66.52;96819.22;5075696;28;20435;-74
2022/07/15 10:38:30;;;;;;;2.60;1.93;;;;;;;18.88;67.41;96818.69;5058704;28;20449;-74
2022/07/15 10:40:57;;;;;;;3.70;2.57;;;;;;;19.42;66.15;96813.81;5073563;28;20986;-74
2022/07/15 10:43:44;;;;;;;3.10;1.97;;;;;;;19.37;68.06;96817.63;5073393;28;20474;-74
2022/07/15 10:46:23;;;;;;;6.10;2.43;;;;;;;19.57;65.22;96814.72;5055469;28;20463;-74
2022/07/15 10:49:16;;;;;;;2.37;1.70;;;;;;;18.91;66.30;96819.88;5040269;28;20468;-74
2022/07/15 10:51:45;;;;;;;5.73;2.30;;;;;;;19.23;66.09;96820.19;5041860;28;20956;-74
2022/07/15 10:54:17;;;;;;;3.13;2.17;;;;;;;19.99;64.78;96817.66;5051958;28;20499;-74
2022/07/15 10:56:47;;;;;;;5.87;2.40;;;;;;;20.19;63.89;96796.69;5071771;28;20831;-74
2022/07/15 10:59:20;;;;;;;5.17;2.23;;;;;;;20.04;64.16;96811.19;5072239;28;20457;-74
2022/07/15 11:02:10;;;;;;;2.03;1.80;;;;;;;20.25;63.13;96815.88;5071923;28;20440;-74
2022/07/15 11:04:37;;;;;;;3.60;2.20;;;;;;;19.45;65.54;96803.09;5053826;28;20931;-74
2022/07/15 11:09:51;;;;;;;5.37;2.20;;;;;;;18.64;66.43;96807.72;5091731;28;20497;-74
2022/07/15 11:12:19;;;;;;;3.70;2.23;;;;;;;18.93;67.51;96806.88;5074985;28;20465;-73
2022/07/15 11:14:50;;;;;;;4.20;2.23;;;;;;;18.69;68.11;96794.75;5093087;28;20531;-74
2022/07/15 11:17:37;;;;;;;3.17;2.67;;;;;;;19.47;66.73;96790.09;5091607;28;20512;-74
2022/07/15 11:20:09;;;;;;;3.83;2.50;;;;;;;20.17;63.95;96755.25;5091817;28;20440;-74
2022/07/15 11:22:38;;;;;;;2.60;2.00;;;;;;;20.33;63.18;96799.41;5074916;28;20462;-74
2022/07/15 11:25:15;;;;;;;2.10;1.80;;;;;;;19.94;62.76;96785.03;5091799;28;20416;-74
2022/07/15 11:28:00;;;;;;;3.97;2.07;;;;;;;20.96;61.38;96797.28;5058759;28;20472;-74
2022/07/15 11:30:32;;;;;;;2.40;2.20;;;;;;;20.01;62.44;96804.63;5072584;28;20925;-74
2022/07/15 11:33:00;;;;;;;2.57;2.37;;;;;;;19.76;61.35;96792.97;5072222;28;20830;-74
2022/07/15 11:35:28;;;;;;;3.37;2.00;;;;;;;19.34;61.89;96756.66;5087377;28;20424;-74
2022/07/15 11:38:03;;;;;;;2.00;1.77;;;;;;;20.05;62.27;96781.28;5059991;28;20508;-74
2022/07/15 11:46:06;;;;;;;6.50;2.90;;;;;;;19.70;60.47;96797.94;5091168;28;20984;-74
2022/07/15 11:48:37;;;;;;;7.03;2.60;;;;;;;19.99;59.64;96792.72;5051385;28;20492;-74
2022/07/15 11:51:06;;;;;;;3.70;2.27;;;;;;;21.14;58.32;96794.66;5070949;28;20920;-74
2022/07/15 11:53:42;;;;;;;2.33;2.13;;;;;;;20.88;57.30;96796.53;5067435;28;20432;-74
2022/07/15 11:56:11;;;;;;;3.47;2.10;;;;;;;20.85;57.53;96740.84;5070769;28;20507;-74